SBI5249 UNNT-UHPP
Flight info
| Callsign | SBI5249 |
|---|---|
| Flight time | N/A |
| Altitude | 39000 |
| Route | OGATI A308 RISPA A822 LAPAK B151 LURIN A824 NALEB T577 SAMIK |
| Aircraft | A320/M-SDE2E3FGHIRWXY/LB1 |
Departure
| Time | 2026-05-08 03:19 |
|---|---|
| Airport | Novosibirsk Tolmachevo Airport (UNNT) |
Arrival
| Time | N/A |
|---|---|
| Airport | Yelizovo Airport (UHPP) |
| Time | Latitude | Longitude | Altitude | Speed | Heading |
|---|---|---|---|---|---|
| 2026-05-08 02:45 | 55.00949 | 82.66404 | 373 ft | 0 kts | 171° |
| 2026-05-08 03:09 | 55.00955 | 82.66403 | 373 ft | 4 kts | 170° |
| 2026-05-08 03:09 | 55.00980 | 82.66393 | 373 ft | 2 kts | 170° |
| 2026-05-08 03:09 | 55.01002 | 82.66386 | 373 ft | 4 kts | 170° |
| 2026-05-08 03:09 | 55.01022 | 82.66389 | 373 ft | 2 kts | 226° |
| 2026-05-08 03:10 | 55.01026 | 82.66395 | 373 ft | 4 kts | 222° |
| 2026-05-08 03:10 | 55.01079 | 82.66398 | 373 ft | 3 kts | 171° |
| 2026-05-08 03:10 | 55.01082 | 82.66397 | 373 ft | 0 kts | 171° |
| 2026-05-08 03:13 | 55.01081 | 82.66397 | 373 ft | 1 kts | 171° |
| 2026-05-08 03:13 | 55.01059 | 82.66403 | 373 ft | 0 kts | 171° |
| 2026-05-08 03:13 | 55.01054 | 82.66405 | 373 ft | 3 kts | 170° |
| 2026-05-08 03:14 | 55.01042 | 82.66469 | 373 ft | 6 kts | 84° |
| 2026-05-08 03:14 | 55.01056 | 82.66532 | 373 ft | 5 kts | 67° |
| 2026-05-08 03:14 | 55.01076 | 82.66619 | 373 ft | 12 kts | 67° |
| 2026-05-08 03:14 | 55.01100 | 82.66773 | 373 ft | 12 kts | 86° |
| 2026-05-08 03:15 | 55.01087 | 82.66897 | 373 ft | 9 kts | 112° |
| 2026-05-08 03:15 | 55.01083 | 82.67000 | 373 ft | 11 kts | 81° |
| 2026-05-08 03:15 | 55.01101 | 82.67188 | 373 ft | 19 kts | 82° |
| 2026-05-08 03:15 | 55.01107 | 82.67347 | 373 ft | 11 kts | 89° |
| 2026-05-08 03:16 | 55.01127 | 82.67464 | 373 ft | 9 kts | 50° |
| 2026-05-08 03:16 | 55.01183 | 82.67526 | 373 ft | 12 kts | 30° |
| 2026-05-08 03:16 | 55.01268 | 82.67614 | 373 ft | 17 kts | 31° |
| 2026-05-08 03:16 | 55.01366 | 82.67716 | 372 ft | 15 kts | 31° |
| 2026-05-08 03:17 | 55.01440 | 82.67793 | 371 ft | 9 kts | 28° |
| 2026-05-08 03:17 | 55.01489 | 82.67780 | 371 ft | 7 kts | 302° |
| 2026-05-08 03:17 | 55.01488 | 82.67736 | 371 ft | 0 kts | 263° |
| 2026-05-08 03:17 | 55.01488 | 82.67735 | 371 ft | 0 kts | 260° |
| 2026-05-08 03:18 | 55.01485 | 82.67699 | 371 ft | 14 kts | 262° |
| 2026-05-08 03:18 | 55.01424 | 82.67038 | 374 ft | 93 kts | 261° |
| 2026-05-08 03:18 | 55.01289 | 82.65555 | 373 ft | 152 kts | 261° |
| 2026-05-08 03:18 | 55.01105 | 82.63492 | 641 ft | 182 kts | 261° |
| 2026-05-08 03:19 | 55.00896 | 82.61249 | 1364 ft | 192 kts | 260° |
| 2026-05-08 03:19 | 55.00672 | 82.58955 | 2077 ft | 196 kts | 261° |
| 2026-05-08 03:19 | 55.00453 | 82.56500 | 2473 ft | 213 kts | 262° |
| 2026-05-08 03:19 | 55.00230 | 82.53916 | 2992 ft | 218 kts | 262° |
| 2026-05-08 03:20 | 55.00120 | 82.51198 | 3344 ft | 230 kts | 279° |
| 2026-05-08 03:20 | 55.00819 | 82.48671 | 3828 ft | 245 kts | 311° |
| 2026-05-08 03:20 | 55.02240 | 82.46867 | 4297 ft | 262 kts | 339° |
| 2026-05-08 03:20 | 55.04058 | 82.46509 | 5027 ft | 270 kts | 10° |
| 2026-05-08 03:21 | 55.05747 | 82.47939 | 5792 ft | 275 kts | 43° |
| 2026-05-08 03:21 | 55.06729 | 82.50780 | 6549 ft | 280 kts | 77° |
| 2026-05-08 03:21 | 55.06677 | 82.54159 | 7246 ft | 283 kts | 106° |
| 2026-05-08 03:21 | 55.06101 | 82.57472 | 7982 ft | 287 kts | 108° |
| 2026-05-08 03:22 | 55.05491 | 82.60818 | 8730 ft | 291 kts | 108° |
| 2026-05-08 03:22 | 55.04870 | 82.64198 | 9453 ft | 295 kts | 108° |
| 2026-05-08 03:22 | 55.04250 | 82.67591 | 10118 ft | 300 kts | 108° |
| 2026-05-08 03:22 | 55.03594 | 82.71197 | 10326 ft | 323 kts | 108° |
| 2026-05-08 03:23 | 55.02894 | 82.75069 | 10488 ft | 346 kts | 108° |
| 2026-05-08 03:23 | 55.02152 | 82.79185 | 10736 ft | 363 kts | 108° |
| 2026-05-08 03:23 | 55.01385 | 82.83435 | 11294 ft | 369 kts | 108° |
| 2026-05-08 03:23 | 55.00617 | 82.87710 | 11918 ft | 372 kts | 107° |
| 2026-05-08 03:24 | 54.99839 | 82.92039 | 12556 ft | 376 kts | 107° |
| 2026-05-08 03:24 | 54.99052 | 82.96409 | 13185 ft | 380 kts | 107° |
| 2026-05-08 03:24 | 54.98252 | 83.00821 | 13804 ft | 384 kts | 107° |
| 2026-05-08 03:24 | 54.97441 | 83.05267 | 14362 ft | 388 kts | 108° |
| 2026-05-08 03:25 | 54.96616 | 83.09769 | 14895 ft | 392 kts | 108° |
| 2026-05-08 03:25 | 54.95784 | 83.14304 | 15418 ft | 396 kts | 108° |
| 2026-05-08 03:25 | 54.94944 | 83.18886 | 15936 ft | 400 kts | 108° |
| 2026-05-08 03:25 | 54.94103 | 83.23460 | 16445 ft | 403 kts | 108° |
| 2026-05-08 03:26 | 54.93241 | 83.28128 | 16945 ft | 407 kts | 108° |
| 2026-05-08 03:26 | 54.92426 | 83.32860 | 17425 ft | 411 kts | 103° |
| 2026-05-08 03:26 | 54.92003 | 83.37805 | 17914 ft | 415 kts | 94° |
| 2026-05-08 03:26 | 54.91796 | 83.42826 | 18364 ft | 419 kts | 94° |
| 2026-05-08 03:27 | 54.91578 | 83.47896 | 18774 ft | 422 kts | 94° |
| 2026-05-08 03:27 | 54.91354 | 83.53007 | 19187 ft | 426 kts | 94° |
| 2026-05-08 03:27 | 54.91124 | 83.58165 | 19597 ft | 429 kts | 94° |
| 2026-05-08 03:27 | 54.90887 | 83.63352 | 20001 ft | 432 kts | 94° |
| 2026-05-08 03:28 | 54.90646 | 83.68576 | 20397 ft | 436 kts | 94° |
| 2026-05-08 03:28 | 54.90403 | 83.73846 | 20788 ft | 439 kts | 94° |
| 2026-05-08 03:28 | 54.90156 | 83.79164 | 21164 ft | 442 kts | 94° |
| 2026-05-08 03:28 | 54.89906 | 83.84513 | 21549 ft | 446 kts | 94° |
| 2026-05-08 03:29 | 54.89650 | 83.89891 | 21919 ft | 449 kts | 94° |
| 2026-05-08 03:29 | 54.89390 | 83.95329 | 22299 ft | 452 kts | 94° |
| 2026-05-08 03:29 | 54.89129 | 84.00784 | 22664 ft | 455 kts | 94° |
| 2026-05-08 03:29 | 54.88864 | 84.06295 | 23027 ft | 459 kts | 94° |
| 2026-05-08 03:30 | 54.88322 | 84.17400 | 23714 ft | 465 kts | 95° |
| 2026-05-08 03:30 | 54.87763 | 84.28565 | 24304 ft | 469 kts | 95° |
| 2026-05-08 03:31 | 54.87181 | 84.39914 | 24887 ft | 474 kts | 95° |
| 2026-05-08 03:31 | 54.86581 | 84.51374 | 25464 ft | 479 kts | 95° |
| 2026-05-08 03:32 | 54.86277 | 84.57138 | 25750 ft | 481 kts | 95° |
| 2026-05-08 03:32 | 54.85967 | 84.62933 | 26033 ft | 484 kts | 95° |
| 2026-05-08 03:32 | 54.85653 | 84.68761 | 26311 ft | 486 kts | 95° |
| 2026-05-08 03:32 | 54.85341 | 84.74613 | 26583 ft | 488 kts | 95° |
| 2026-05-08 03:33 | 54.85033 | 84.80499 | 26837 ft | 491 kts | 95° |
| 2026-05-08 03:33 | 54.84726 | 84.86407 | 27080 ft | 493 kts | 95° |
| 2026-05-08 03:33 | 54.84414 | 84.92360 | 27326 ft | 495 kts | 95° |
| 2026-05-08 03:33 | 54.84099 | 84.98329 | 27562 ft | 497 kts | 95° |
| 2026-05-08 03:34 | 54.83781 | 85.04315 | 27772 ft | 500 kts | 95° |
| 2026-05-08 03:34 | 54.83465 | 85.10244 | 27903 ft | 501 kts | 95° |
| 2026-05-08 03:34 | 54.83144 | 85.16270 | 28062 ft | 502 kts | 95° |
| 2026-05-08 03:34 | 54.82823 | 85.22300 | 28237 ft | 504 kts | 95° |
| 2026-05-08 03:35 | 54.82501 | 85.28364 | 28435 ft | 505 kts | 95° |
| 2026-05-08 03:35 | 54.82179 | 85.34446 | 28639 ft | 507 kts | 95° |
| 2026-05-08 03:35 | 54.81856 | 85.40542 | 28903 ft | 509 kts | 95° |
| 2026-05-08 03:35 | 54.81532 | 85.46676 | 29175 ft | 510 kts | 95° |
| 2026-05-08 03:36 | 54.81289 | 85.52805 | 29452 ft | 510 kts | 88° |
| 2026-05-08 03:36 | 54.81899 | 85.58811 | 29765 ft | 505 kts | 67° |
| 2026-05-08 03:36 | 54.83515 | 85.64151 | 30057 ft | 497 kts | 50° |
| 2026-05-08 03:36 | 54.85670 | 85.68792 | 30304 ft | 493 kts | 44° |
| 2026-05-08 03:37 | 54.87935 | 85.73264 | 30580 ft | 493 kts | 44° |
| 2026-05-08 03:37 | 54.90172 | 85.77778 | 30876 ft | 494 kts | 48° |
| 2026-05-08 03:37 | 54.92177 | 85.82641 | 31159 ft | 496 kts | 52° |
| 2026-05-08 03:37 | 54.94007 | 85.87726 | 31467 ft | 497 kts | 56° |
| 2026-05-08 03:38 | 54.95707 | 85.92954 | 31769 ft | 496 kts | 58° |
| 2026-05-08 03:38 | 54.97270 | 85.98322 | 32067 ft | 498 kts | 64° |
| 2026-05-08 03:38 | 54.98408 | 86.04025 | 32353 ft | 500 kts | 72° |
| 2026-05-08 03:38 | 54.99305 | 86.09875 | 32648 ft | 499 kts | 72° |
| 2026-05-08 03:39 | 55.00263 | 86.15702 | 32941 ft | 498 kts | 71° |
| 2026-05-08 03:39 | 55.01252 | 86.21401 | 33234 ft | 497 kts | 70° |
| 2026-05-08 03:39 | 55.02273 | 86.27161 | 33527 ft | 496 kts | 70° |
| 2026-05-08 03:39 | 55.03285 | 86.32899 | 33830 ft | 495 kts | 70° |
| 2026-05-08 03:40 | 55.04275 | 86.38630 | 34102 ft | 494 kts | 71° |
| 2026-05-08 03:40 | 55.05246 | 86.44391 | 34354 ft | 493 kts | 71° |
| 2026-05-08 03:40 | 55.06199 | 86.50128 | 34599 ft | 493 kts | 71° |
| 2026-05-08 03:40 | 55.07138 | 86.55863 | 34834 ft | 492 kts | 71° |
| 2026-05-08 03:41 | 55.08074 | 86.61610 | 35055 ft | 491 kts | 71° |
| 2026-05-08 03:41 | 55.09009 | 86.67362 | 35270 ft | 491 kts | 71° |
| 2026-05-08 03:41 | 55.09942 | 86.73089 | 35482 ft | 490 kts | 71° |
| 2026-05-08 03:41 | 55.10874 | 86.78808 | 35706 ft | 489 kts | 71° |
| 2026-05-08 03:42 | 55.11805 | 86.84525 | 35900 ft | 489 kts | 71° |
| 2026-05-08 03:42 | 55.12733 | 86.90233 | 36097 ft | 488 kts | 72° |
| 2026-05-08 03:42 | 55.13648 | 86.95876 | 36282 ft | 488 kts | 72° |
| 2026-05-08 03:42 | 55.14569 | 87.01580 | 36458 ft | 487 kts | 72° |
| 2026-05-08 03:43 | 55.15486 | 87.07285 | 36624 ft | 487 kts | 72° |
| 2026-05-08 03:43 | 55.16398 | 87.12982 | 36801 ft | 487 kts | 72° |
| 2026-05-08 03:43 | 55.17305 | 87.18687 | 36982 ft | 486 kts | 72° |
| 2026-05-08 03:43 | 55.18208 | 87.24387 | 37144 ft | 486 kts | 72° |
| 2026-05-08 03:44 | 55.19109 | 87.30088 | 37295 ft | 485 kts | 72° |
| 2026-05-08 03:44 | 55.20005 | 87.35776 | 37438 ft | 485 kts | 72° |
| 2026-05-08 03:44 | 55.20899 | 87.41473 | 37610 ft | 485 kts | 72° |
| 2026-05-08 03:44 | 55.21789 | 87.47158 | 37760 ft | 484 kts | 72° |
| 2026-05-08 03:45 | 55.22678 | 87.52846 | 37905 ft | 484 kts | 72° |
| 2026-05-08 03:45 | 55.23564 | 87.58525 | 38066 ft | 484 kts | 72° |
| 2026-05-08 03:45 | 55.24448 | 87.64214 | 38224 ft | 483 kts | 73° |
| 2026-05-08 03:45 | 55.25327 | 87.69896 | 38379 ft | 483 kts | 73° |
| 2026-05-08 03:46 | 55.26202 | 87.75570 | 38529 ft | 482 kts | 73° |
| 2026-05-08 03:46 | 55.27071 | 87.81245 | 38658 ft | 481 kts | 73° |
| 2026-05-08 03:46 | 55.27644 | 87.84996 | 38737 ft | 481 kts | 73° |